To NAV CANADA Home Page Login to a new session Search on AWWS site Feedback and Comments Disclaimer Vers la page française équivalente Tips FAQ What's new on the site To the Forecasts and Observations / NOTAM section To "File a Flight Plan" website Publications and other links Update of the User's profile FIC Telephone Numbers My Weather Data Folder Route Weather Data Regional Weather Data Local Weather Data To the Forecasts and Observations / NOTAM section
Request Generated 05/24/2015 at 08:49:11 UTC . Weather information available at that time is displayed.

METAR/TAF

If you find any discrepancies between the coded METAR/TAF and the plain language METAR/TAF please use the coded METAR/TAF. LWIS bulletins are not decoded in plain language.

VANCOUVER/VANCOUVER INTL/BC    

METAR CYVR 240800Z 10009KT 20SM FEW030 BKN048 13/11 A3015 RMK SC1SC5 SLP210=
METAR
LOCATION
CYVR - VANCOUVER/VANCOUVER INTL/BC
DATE - TIME
24 MAY 2015 - 0800 UTC
WIND
100 TRUE @ 9  KNOTS
VISIBILITY
20 STAT.  MILES
RUNWAY VISUAL RANGE
WEATHER
CLOUDINESS
FEW CLOUDS (1/8 - 2/8) 3000  FT
BROKEN CLOUDS (5/8 - 7/8) 4800  FT
TEMP / DEWPOINT
13 C / 11 C
ALTIMETER
30.15 IN HG
RECENT WEATHER
WIND SHEAR

METAR CYVR 240700Z 11008KT 20SM FEW030 BKN056 13/11 A3015 RMK SC1SC4 SLP210=
METAR
LOCATION
CYVR - VANCOUVER/VANCOUVER INTL/BC
DATE - TIME
24 MAY 2015 - 0700 UTC
WIND
110 TRUE @ 8  KNOTS
VISIBILITY
20 STAT.  MILES
RUNWAY VISUAL RANGE
WEATHER
CLOUDINESS
FEW CLOUDS (1/8 - 2/8) 3000  FT
BROKEN CLOUDS (5/8 - 7/8) 5600  FT
TEMP / DEWPOINT
13 C / 11 C
ALTIMETER
30.15 IN HG
RECENT WEATHER
WIND SHEAR

METAR CYVR 240600Z 10009KT 20SM FEW030 SCT050 13/10 A3015 RMK SC1SC3 SLP209=
METAR
LOCATION
CYVR - VANCOUVER/VANCOUVER INTL/BC
DATE - TIME
24 MAY 2015 - 0600 UTC
WIND
100 TRUE @ 9  KNOTS
VISIBILITY
20 STAT.  MILES
RUNWAY VISUAL RANGE
WEATHER
CLOUDINESS
FEW CLOUDS (1/8 - 2/8) 3000  FT
SCATTERED CLOUDS (3/8 - 4/8) 5000  FT
TEMP / DEWPOINT
13 C / 10 C
ALTIMETER
30.15 IN HG
RECENT WEATHER
WIND SHEAR

TAF CYVR 240838Z 2409/2512 10008KT P6SM FEW020 BKN040 TEMPO 2409/2412 BKN020 FM241200 10008KT P6SM BKN015 OVC030 TEMPO 2412/2420 FEW015 BKN030 BECMG 2418/2420 24008KT FM242000 23008KT P6SM SCT030 BECMG 2503/2505 10008KT FM250500 10008KT P6SM FEW015 BKN030 RMK NXT FCST BY 241200Z=
TAF
LOCATION

CYVR - VANCOUVER/VANCOUVER INTL/BC
VALIDITY [UTC]
24 MAY - 0838 to
25 MAY - 1200
 
TIMES
[UTC]
WIND
[DEGREES TRUE]
VISIBILITY
[STAT. MILES]
WEATHER
CLOUDINESS
[FEET AGL]
 
24 MAY - 0900 to
24 MAY - 1200
100 @ 8 KNOTS
6+
NIL
2000 FEW
4000 BROKEN
TEMPORARY CHANGES
24 MAY - 0900 to
24 MAY - 1200
 
 
 
2000 BROKEN
 
24 MAY - 1200 to
24 MAY - 2000
100 @ 8 KNOTS
6+
NIL
1500 BROKEN
3000 OVERCAST
TEMPORARY CHANGES
24 MAY - 1200 to
24 MAY - 2000
 
 
 
1500 FEW
3000 BROKEN
BECOMING
24 MAY - 1800 to
24 MAY - 2000
240 @ 8 KNOTS
 
 
 
 
24 MAY - 2000 to
25 MAY - 0500
230 @ 8 KNOTS
6+
NIL
3000 SCATTERED
BECOMING
25 MAY - 0300 to
25 MAY - 0500
100 @ 8 KNOTS
 
 
 
 
25 MAY - 0500 to
25 MAY - 1200
100 @ 8 KNOTS
6+
NIL
1500 FEW
3000 BROKEN
REMARKS
THE NEXT FORECAST WILL BE ISSUED BY 1200 UTC ON DAY 24


Your time UTC time
Weather data provided by Environment Canada and NAV CANADA